sensor_id;sensor_type;location;lat;lon;timestamp;P1;durP1;ratioP1;P2;durP2;ratioP2
15381;SDS011;7789;51.364;12.358;2023-06-26T00:02:30;4.25;;;3.70;;
15381;SDS011;7789;51.364;12.358;2023-06-26T00:07:35;5.70;;;3.95;;
15381;SDS011;7789;51.364;12.358;2023-06-26T00:12:38;4.00;;;3.58;;
15381;SDS011;7789;51.364;12.358;2023-06-26T00:17:43;6.30;;;4.00;;
15381;SDS011;7789;51.364;12.358;2023-06-26T00:22:47;3.75;;;3.45;;
15381;SDS011;7789;51.364;12.358;2023-06-26T00:27:52;4.00;;;3.60;;
15381;SDS011;7789;51.364;12.358;2023-06-26T00:32:57;3.90;;;3.60;;
15381;SDS011;7789;51.364;12.358;2023-06-26T00:38:00;4.10;;;3.30;;
15381;SDS011;7789;51.364;12.358;2023-06-26T00:43:04;5.75;;;3.78;;
15381;SDS011;7789;51.364;12.358;2023-06-26T00:48:09;4.38;;;3.70;;
15381;SDS011;7789;51.364;12.358;2023-06-26T00:53:14;7.38;;;3.90;;
15381;SDS011;7789;51.364;12.358;2023-06-26T00:58:17;4.03;;;3.72;;
15381;SDS011;7789;51.364;12.358;2023-06-26T01:03:23;5.32;;;4.28;;
15381;SDS011;7789;51.364;12.358;2023-06-26T01:08:28;4.82;;;3.65;;
15381;SDS011;7789;51.364;12.358;2023-06-26T01:13:32;4.07;;;3.28;;
15381;SDS011;7789;51.364;12.358;2023-06-26T01:18:39;4.38;;;3.40;;
15381;SDS011;7789;51.364;12.358;2023-06-26T01:23:47;3.75;;;3.45;;
15381;SDS011;7789;51.364;12.358;2023-06-26T01:29:02;5.63;;;4.10;;
15381;SDS011;7789;51.364;12.358;2023-06-26T01:34:07;4.00;;;3.63;;
15381;SDS011;7789;51.364;12.358;2023-06-26T01:39:12;6.65;;;4.00;;
15381;SDS011;7789;51.364;12.358;2023-06-26T01:44:21;4.45;;;4.07;;
15381;SDS011;7789;51.364;12.358;2023-06-26T01:49:31;4.80;;;3.97;;
15381;SDS011;7789;51.364;12.358;2023-06-26T01:54:42;4.00;;;3.70;;
15381;SDS011;7789;51.364;12.358;2023-06-26T01:59:57;4.05;;;3.65;;
15381;SDS011;7789;51.364;12.358;2023-06-26T02:05:02;5.15;;;3.72;;
15381;SDS011;7789;51.364;12.358;2023-06-26T02:10:06;4.70;;;3.88;;
15381;SDS011;7789;51.364;12.358;2023-06-26T02:15:12;4.82;;;3.72;;
15381;SDS011;7789;51.364;12.358;2023-06-26T02:20:15;4.30;;;3.90;;
15381;SDS011;7789;51.364;12.358;2023-06-26T02:25:19;4.13;;;3.78;;
15381;SDS011;7789;51.364;12.358;2023-06-26T02:30:23;5.00;;;4.50;;
15381;SDS011;7789;51.364;12.358;2023-06-26T02:35:27;4.40;;;4.00;;
15381;SDS011;7789;51.364;12.358;2023-06-26T02:40:30;6.93;;;4.22;;
15381;SDS011;7789;51.364;12.358;2023-06-26T02:45:35;4.70;;;4.30;;
15381;SDS011;7789;51.364;12.358;2023-06-26T02:50:39;5.03;;;3.65;;
15381;SDS011;7789;51.364;12.358;2023-06-26T02:55:42;4.90;;;4.40;;
15381;SDS011;7789;51.364;12.358;2023-06-26T03:00:47;5.53;;;4.10;;
15381;SDS011;7789;51.364;12.358;2023-06-26T03:05:51;6.70;;;4.60;;
15381;SDS011;7789;51.364;12.358;2023-06-26T03:10:54;5.05;;;4.05;;
15381;SDS011;7789;51.364;12.358;2023-06-26T03:15:59;4.55;;;4.15;;
15381;SDS011;7789;51.364;12.358;2023-06-26T03:21:03;5.75;;;3.90;;
15381;SDS011;7789;51.364;12.358;2023-06-26T03:26:07;5.50;;;4.28;;
15381;SDS011;7789;51.364;12.358;2023-06-26T03:31:12;4.70;;;4.30;;
15381;SDS011;7789;51.364;12.358;2023-06-26T03:36:16;5.13;;;4.38;;
15381;SDS011;7789;51.364;12.358;2023-06-26T03:41:19;6.85;;;5.25;;
15381;SDS011;7789;51.364;12.358;2023-06-26T03:46:25;5.28;;;4.03;;
15381;SDS011;7789;51.364;12.358;2023-06-26T03:51:28;5.07;;;3.97;;
15381;SDS011;7789;51.364;12.358;2023-06-26T03:56:32;5.57;;;4.18;;
15381;SDS011;7789;51.364;12.358;2023-06-26T04:01:37;4.85;;;4.35;;
15381;SDS011;7789;51.364;12.358;2023-06-26T04:06:41;6.90;;;4.43;;
15381;SDS011;7789;51.364;12.358;2023-06-26T04:11:45;4.55;;;4.13;;
15381;SDS011;7789;51.364;12.358;2023-06-26T04:16:49;6.68;;;4.28;;
15381;SDS011;7789;51.364;12.358;2023-06-26T04:21:54;6.15;;;4.22;;
15381;SDS011;7789;51.364;12.358;2023-06-26T04:26:58;8.00;;;3.95;;
15381;SDS011;7789;51.364;12.358;2023-06-26T04:32:03;4.40;;;4.00;;
15381;SDS011;7789;51.364;12.358;2023-06-26T04:37:07;5.57;;;4.20;;
15381;SDS011;7789;51.364;12.358;2023-06-26T04:42:11;5.32;;;4.15;;
15381;SDS011;7789;51.364;12.358;2023-06-26T04:47:16;6.22;;;3.95;;
15381;SDS011;7789;51.364;12.358;2023-06-26T04:52:20;7.03;;;3.97;;
15381;SDS011;7789;51.364;12.358;2023-06-26T04:57:23;4.35;;;3.95;;
15381;SDS011;7789;51.364;12.358;2023-06-26T05:02:28;4.38;;;3.45;;
15381;SDS011;7789;51.364;12.358;2023-06-26T05:07:31;5.57;;;3.45;;
15381;SDS011;7789;51.364;12.358;2023-06-26T05:12:35;4.05;;;3.65;;
15381;SDS011;7789;51.364;12.358;2023-06-26T05:17:40;4.53;;;3.40;;
15381;SDS011;7789;51.364;12.358;2023-06-26T05:22:43;4.78;;;3.63;;
15381;SDS011;7789;51.364;12.358;2023-06-26T05:27:48;6.70;;;3.45;;
15381;SDS011;7789;51.364;12.358;2023-06-26T05:32:54;4.85;;;3.28;;
15381;SDS011;7789;51.364;12.358;2023-06-26T05:37:58;3.88;;;3.58;;
15381;SDS011;7789;51.364;12.358;2023-06-26T05:43:02;3.80;;;3.28;;
15381;SDS011;7789;51.364;12.358;2023-06-26T05:48:08;3.78;;;3.20;;
15381;SDS011;7789;51.364;12.358;2023-06-26T05:53:12;3.60;;;3.28;;
15381;SDS011;7789;51.364;12.358;2023-06-26T05:58:17;4.82;;;3.50;;
15381;SDS011;7789;51.364;12.358;2023-06-26T06:03:24;6.05;;;3.20;;
15381;SDS011;7789;51.364;12.358;2023-06-26T06:08:30;2.90;;;2.70;;
15381;SDS011;7789;51.364;12.358;2023-06-26T06:13:34;4.00;;;3.08;;
15381;SDS011;7789;51.364;12.358;2023-06-26T06:18:38;3.50;;;3.20;;
15381;SDS011;7789;51.364;12.358;2023-06-26T06:23:42;4.78;;;2.92;;
15381;SDS011;7789;51.364;12.358;2023-06-26T06:28:45;5.38;;;3.05;;
15381;SDS011;7789;51.364;12.358;2023-06-26T06:33:50;3.38;;;3.08;;
15381;SDS011;7789;51.364;12.358;2023-06-26T06:38:54;4.50;;;3.22;;
15381;SDS011;7789;51.364;12.358;2023-06-26T06:43:57;8.25;;;3.50;;
15381;SDS011;7789;51.364;12.358;2023-06-26T06:49:02;4.60;;;3.20;;
15381;SDS011;7789;51.364;12.358;2023-06-26T06:54:06;4.60;;;3.17;;
15381;SDS011;7789;51.364;12.358;2023-06-26T06:59:09;3.90;;;3.60;;
15381;SDS011;7789;51.364;12.358;2023-06-26T07:04:14;5.47;;;3.47;;
15381;SDS011;7789;51.364;12.358;2023-06-26T07:09:17;5.07;;;3.80;;
15381;SDS011;7789;51.364;12.358;2023-06-26T07:14:21;6.70;;;3.60;;
15381;SDS011;7789;51.364;12.358;2023-06-26T07:19:26;4.72;;;3.60;;
15381;SDS011;7789;51.364;12.358;2023-06-26T07:24:30;6.57;;;3.63;;
15381;SDS011;7789;51.364;12.358;2023-06-26T07:29:34;6.57;;;3.80;;
15381;SDS011;7789;51.364;12.358;2023-06-26T07:34:39;5.55;;;3.95;;
15381;SDS011;7789;51.364;12.358;2023-06-26T07:39:43;7.60;;;3.60;;
15381;SDS011;7789;51.364;12.358;2023-06-26T07:44:47;4.05;;;3.65;;
15381;SDS011;7789;51.364;12.358;2023-06-26T07:49:52;4.93;;;3.50;;
15381;SDS011;7789;51.364;12.358;2023-06-26T07:54:55;4.78;;;3.45;;
15381;SDS011;7789;51.364;12.358;2023-06-26T07:59:59;4.90;;;3.50;;
15381;SDS011;7789;51.364;12.358;2023-06-26T08:05:05;11.23;;;3.97;;
15381;SDS011;7789;51.364;12.358;2023-06-26T08:10:09;4.88;;;3.75;;
15381;SDS011;7789;51.364;12.358;2023-06-26T08:15:13;7.22;;;3.78;;
15381;SDS011;7789;51.364;12.358;2023-06-26T08:20:17;6.72;;;3.53;;
15381;SDS011;7789;51.364;12.358;2023-06-26T08:25:22;5.07;;;3.70;;
15381;SDS011;7789;51.364;12.358;2023-06-26T08:30:26;5.90;;;3.78;;
15381;SDS011;7789;51.364;12.358;2023-06-26T08:35:32;5.00;;;3.70;;
15381;SDS011;7789;51.364;12.358;2023-06-26T08:40:36;4.22;;;3.70;;
15381;SDS011;7789;51.364;12.358;2023-06-26T08:45:40;7.18;;;4.00;;
15381;SDS011;7789;51.364;12.358;2023-06-26T08:50:45;3.90;;;3.60;;
15381;SDS011;7789;51.364;12.358;2023-06-26T08:55:55;4.63;;;3.50;;
15381;SDS011;7789;51.364;12.358;2023-06-26T09:01:04;3.90;;;3.50;;
15381;SDS011;7789;51.364;12.358;2023-06-26T09:06:10;3.65;;;3.30;;
15381;SDS011;7789;51.364;12.358;2023-06-26T09:11:13;5.30;;;3.88;;
15381;SDS011;7789;51.364;12.358;2023-06-26T09:16:17;3.42;;;3.20;;
15381;SDS011;7789;51.364;12.358;2023-06-26T09:21:22;6.88;;;3.75;;
15381;SDS011;7789;51.364;12.358;2023-06-26T09:26:26;6.43;;;3.58;;
15381;SDS011;7789;51.364;12.358;2023-06-26T09:31:30;5.05;;;3.70;;
15381;SDS011;7789;51.364;12.358;2023-06-26T09:36:45;3.92;;;3.53;;
15381;SDS011;7789;51.364;12.358;2023-06-26T09:41:51;3.80;;;3.45;;
15381;SDS011;7789;51.364;12.358;2023-06-26T09:46:59;6.13;;;3.33;;
15381;SDS011;7789;51.364;12.358;2023-06-26T09:52:07;3.72;;;3.42;;
15381;SDS011;7789;51.364;12.358;2023-06-26T09:57:11;3.72;;;3.42;;
15381;SDS011;7789;51.364;12.358;2023-06-26T10:02:15;3.45;;;3.15;;
15381;SDS011;7789;51.364;12.358;2023-06-26T10:07:20;3.63;;;3.33;;
15381;SDS011;7789;51.364;12.358;2023-06-26T10:12:29;3.55;;;3.25;;
15381;SDS011;7789;51.364;12.358;2023-06-26T10:17:34;4.43;;;3.10;;
15381;SDS011;7789;51.364;12.358;2023-06-26T10:22:42;4.20;;;3.30;;
15381;SDS011;7789;51.364;12.358;2023-06-26T10:27:49;3.80;;;3.50;;
15381;SDS011;7789;51.364;12.358;2023-06-26T10:32:56;3.40;;;3.05;;
15381;SDS011;7789;51.364;12.358;2023-06-26T10:38:02;3.60;;;3.30;;
15381;SDS011;7789;51.364;12.358;2023-06-26T10:43:06;3.97;;;3.22;;
15381;SDS011;7789;51.364;12.358;2023-06-26T10:48:12;5.32;;;3.75;;
15381;SDS011;7789;51.364;12.358;2023-06-26T10:53:23;3.65;;;3.25;;
15381;SDS011;7789;51.364;12.358;2023-06-26T10:58:29;4.80;;;3.53;;
15381;SDS011;7789;51.364;12.358;2023-06-26T11:03:34;4.07;;;3.35;;
15381;SDS011;7789;51.364;12.358;2023-06-26T11:08:48;3.50;;;3.20;;
15381;SDS011;7789;51.364;12.358;2023-06-26T11:13:53;5.28;;;3.50;;
15381;SDS011;7789;51.364;12.358;2023-06-26T11:18:58;4.13;;;3.25;;
15381;SDS011;7789;51.364;12.358;2023-06-26T11:24:04;3.70;;;3.40;;
15381;SDS011;7789;51.364;12.358;2023-06-26T11:29:09;3.55;;;3.25;;
15381;SDS011;7789;51.364;12.358;2023-06-26T11:34:13;4.50;;;3.33;;
15381;SDS011;7789;51.364;12.358;2023-06-26T11:39:18;3.83;;;3.53;;
15381;SDS011;7789;51.364;12.358;2023-06-26T11:44:22;3.45;;;3.17;;
15381;SDS011;7789;51.364;12.358;2023-06-26T11:49:26;6.53;;;3.00;;
15381;SDS011;7789;51.364;12.358;2023-06-26T11:54:33;4.22;;;3.17;;
15381;SDS011;7789;51.364;12.358;2023-06-26T11:59:37;3.08;;;2.88;;
15381;SDS011;7789;51.364;12.358;2023-06-26T12:04:43;3.53;;;3.22;;
15381;SDS011;7789;51.364;12.358;2023-06-26T12:09:49;3.90;;;3.50;;
15381;SDS011;7789;51.364;12.358;2023-06-26T12:14:53;3.25;;;3.05;;
15381;SDS011;7789;51.364;12.358;2023-06-26T12:19:57;3.42;;;3.13;;
15381;SDS011;7789;51.364;12.358;2023-06-26T12:25:02;3.47;;;3.17;;
15381;SDS011;7789;51.364;12.358;2023-06-26T12:30:10;3.55;;;2.90;;
15381;SDS011;7789;51.364;12.358;2023-06-26T12:35:14;3.90;;;3.15;;
15381;SDS011;7789;51.364;12.358;2023-06-26T12:40:20;5.57;;;3.00;;
15381;SDS011;7789;51.364;12.358;2023-06-26T12:45:27;3.33;;;3.03;;
15381;SDS011;7789;51.364;12.358;2023-06-26T12:50:43;3.25;;;3.05;;
15381;SDS011;7789;51.364;12.358;2023-06-26T12:55:49;3.40;;;3.10;;
15381;SDS011;7789;51.364;12.358;2023-06-26T13:00:52;3.80;;;3.47;;
15381;SDS011;7789;51.364;12.358;2023-06-26T13:06:00;5.00;;;3.40;;
15381;SDS011;7789;51.364;12.358;2023-06-26T13:11:05;3.95;;;3.55;;
15381;SDS011;7789;51.364;12.358;2023-06-26T13:16:08;3.95;;;3.30;;
15381;SDS011;7789;51.364;12.358;2023-06-26T13:21:12;3.63;;;3.38;;
15381;SDS011;7789;51.364;12.358;2023-06-26T13:26:18;3.88;;;3.58;;
15381;SDS011;7789;51.364;12.358;2023-06-26T13:31:38;3.40;;;3.20;;
15381;SDS011;7789;51.364;12.358;2023-06-26T13:36:42;3.50;;;3.20;;
15381;SDS011;7789;51.364;12.358;2023-06-26T13:41:47;4.43;;;3.40;;
15381;SDS011;7789;51.364;12.358;2023-06-26T13:46:50;3.92;;;3.20;;
15381;SDS011;7789;51.364;12.358;2023-06-26T13:51:55;3.65;;;3.35;;
15381;SDS011;7789;51.364;12.358;2023-06-26T13:57:00;3.95;;;3.65;;
15381;SDS011;7789;51.364;12.358;2023-06-26T14:02:04;6.35;;;3.70;;
15381;SDS011;7789;51.364;12.358;2023-06-26T14:07:08;7.13;;;4.70;;
15381;SDS011;7789;51.364;12.358;2023-06-26T14:12:13;23.13;;;8.48;;
15381;SDS011;7789;51.364;12.358;2023-06-26T14:17:17;18.90;;;7.25;;
15381;SDS011;7789;51.364;12.358;2023-06-26T14:22:21;15.68;;;7.82;;
15381;SDS011;7789;51.364;12.358;2023-06-26T14:27:26;12.77;;;7.50;;
15381;SDS011;7789;51.364;12.358;2023-06-26T14:32:29;15.48;;;8.20;;
15381;SDS011;7789;51.364;12.358;2023-06-26T14:37:32;12.27;;;7.78;;
15381;SDS011;7789;51.364;12.358;2023-06-26T14:42:40;13.40;;;7.68;;
15381;SDS011;7789;51.364;12.358;2023-06-26T14:47:45;11.35;;;7.82;;
15381;SDS011;7789;51.364;12.358;2023-06-26T14:52:48;12.32;;;8.52;;
15381;SDS011;7789;51.364;12.358;2023-06-26T14:57:53;12.20;;;8.63;;
15381;SDS011;7789;51.364;12.358;2023-06-26T15:02:57;11.98;;;7.50;;
15381;SDS011;7789;51.364;12.358;2023-06-26T15:08:01;12.68;;;7.10;;
15381;SDS011;7789;51.364;12.358;2023-06-26T15:13:06;9.55;;;6.70;;
15381;SDS011;7789;51.364;12.358;2023-06-26T15:18:10;7.60;;;6.20;;
15381;SDS011;7789;51.364;12.358;2023-06-26T15:23:13;7.32;;;6.15;;
15381;SDS011;7789;51.364;12.358;2023-06-26T15:28:18;5.85;;;5.25;;
15381;SDS011;7789;51.364;12.358;2023-06-26T15:33:23;5.55;;;5.00;;
15381;SDS011;7789;51.364;12.358;2023-06-26T15:38:26;6.60;;;4.72;;
15381;SDS011;7789;51.364;12.358;2023-06-26T15:43:32;9.18;;;5.03;;
15381;SDS011;7789;51.364;12.358;2023-06-26T15:48:36;7.47;;;5.30;;
15381;SDS011;7789;51.364;12.358;2023-06-26T15:53:42;5.70;;;4.43;;
15381;SDS011;7789;51.364;12.358;2023-06-26T15:58:47;6.90;;;4.65;;
15381;SDS011;7789;51.364;12.358;2023-06-26T16:03:51;5.65;;;4.90;;
15381;SDS011;7789;51.364;12.358;2023-06-26T16:08:54;6.63;;;5.10;;
15381;SDS011;7789;51.364;12.358;2023-06-26T16:14:00;5.95;;;5.35;;
15381;SDS011;7789;51.364;12.358;2023-06-26T16:19:03;7.22;;;5.60;;
15381;SDS011;7789;51.364;12.358;2023-06-26T16:24:07;11.00;;;6.05;;
15381;SDS011;7789;51.364;12.358;2023-06-26T16:29:12;8.77;;;5.85;;
15381;SDS011;7789;51.364;12.358;2023-06-26T16:34:16;7.72;;;5.50;;
15381;SDS011;7789;51.364;12.358;2023-06-26T16:39:19;5.88;;;5.22;;
15381;SDS011;7789;51.364;12.358;2023-06-26T16:44:25;8.73;;;5.63;;
15381;SDS011;7789;51.364;12.358;2023-06-26T16:49:29;10.02;;;7.43;;
15381;SDS011;7789;51.364;12.358;2023-06-26T16:54:33;8.48;;;6.07;;
15381;SDS011;7789;51.364;12.358;2023-06-26T16:59:38;9.88;;;5.65;;
15381;SDS011;7789;51.364;12.358;2023-06-26T17:04:41;8.98;;;6.60;;
15381;SDS011;7789;51.364;12.358;2023-06-26T17:09:44;7.32;;;5.45;;
15381;SDS011;7789;51.364;12.358;2023-06-26T17:14:49;8.52;;;6.03;;
15381;SDS011;7789;51.364;12.358;2023-06-26T17:19:53;7.93;;;5.38;;
15381;SDS011;7789;51.364;12.358;2023-06-26T17:24:57;6.35;;;4.85;;
15381;SDS011;7789;51.364;12.358;2023-06-26T17:30:07;7.18;;;4.72;;
15381;SDS011;7789;51.364;12.358;2023-06-26T17:35:16;9.00;;;5.20;;
15381;SDS011;7789;51.364;12.358;2023-06-26T17:40:20;5.80;;;4.95;;
15381;SDS011;7789;51.364;12.358;2023-06-26T17:45:25;6.45;;;5.07;;
15381;SDS011;7789;51.364;12.358;2023-06-26T17:50:31;6.28;;;4.68;;
15381;SDS011;7789;51.364;12.358;2023-06-26T17:55:34;7.32;;;4.93;;
15381;SDS011;7789;51.364;12.358;2023-06-26T18:00:39;5.70;;;4.53;;
15381;SDS011;7789;51.364;12.358;2023-06-26T18:05:43;5.25;;;4.07;;
15381;SDS011;7789;51.364;12.358;2023-06-26T18:10:50;4.68;;;4.13;;
15381;SDS011;7789;51.364;12.358;2023-06-26T18:15:57;4.40;;;3.75;;
15381;SDS011;7789;51.364;12.358;2023-06-26T18:21:01;5.18;;;3.80;;
15381;SDS011;7789;51.364;12.358;2023-06-26T18:26:06;5.63;;;3.15;;
15381;SDS011;7789;51.364;12.358;2023-06-26T18:31:11;8.52;;;3.40;;
15381;SDS011;7789;51.364;12.358;2023-06-26T18:36:15;6.45;;;3.42;;
15381;SDS011;7789;51.364;12.358;2023-06-26T18:41:19;3.45;;;2.47;;
15381;SDS011;7789;51.364;12.358;2023-06-26T18:46:24;3.45;;;2.70;;
15381;SDS011;7789;51.364;12.358;2023-06-26T18:51:29;6.68;;;3.08;;
15381;SDS011;7789;51.364;12.358;2023-06-26T18:56:33;8.98;;;2.78;;
15381;SDS011;7789;51.364;12.358;2023-06-26T19:01:38;4.20;;;2.47;;
15381;SDS011;7789;51.364;12.358;2023-06-26T19:06:42;4.28;;;3.00;;
15381;SDS011;7789;51.364;12.358;2023-06-26T19:11:45;3.85;;;2.38;;
15381;SDS011;7789;51.364;12.358;2023-06-26T19:16:52;5.90;;;2.55;;
15381;SDS011;7789;51.364;12.358;2023-06-26T19:21:56;7.30;;;2.50;;
15381;SDS011;7789;51.364;12.358;2023-06-26T19:27:00;5.20;;;2.60;;
15381;SDS011;7789;51.364;12.358;2023-06-26T19:32:05;4.90;;;2.63;;
15381;SDS011;7789;51.364;12.358;2023-06-26T19:37:10;3.25;;;2.67;;
15381;SDS011;7789;51.364;12.358;2023-06-26T19:42:14;5.63;;;3.28;;
15381;SDS011;7789;51.364;12.358;2023-06-26T19:47:19;4.88;;;2.63;;
15381;SDS011;7789;51.364;12.358;2023-06-26T19:52:22;5.22;;;2.60;;
15381;SDS011;7789;51.364;12.358;2023-06-26T19:57:27;5.50;;;2.72;;
15381;SDS011;7789;51.364;12.358;2023-06-26T20:02:33;5.75;;;2.72;;
15381;SDS011;7789;51.364;12.358;2023-06-26T20:07:37;4.05;;;2.65;;
15381;SDS011;7789;51.364;12.358;2023-06-26T20:12:41;4.35;;;2.53;;
15381;SDS011;7789;51.364;12.358;2023-06-26T20:17:46;3.90;;;2.42;;
15381;SDS011;7789;51.364;12.358;2023-06-26T20:22:50;6.85;;;2.28;;
15381;SDS011;7789;51.364;12.358;2023-06-26T20:27:54;5.13;;;2.90;;
15381;SDS011;7789;51.364;12.358;2023-06-26T20:33:00;4.80;;;1.90;;
15381;SDS011;7789;51.364;12.358;2023-06-26T20:38:03;6.65;;;2.33;;
15381;SDS011;7789;51.364;12.358;2023-06-26T20:43:07;6.15;;;2.25;;
15381;SDS011;7789;51.364;12.358;2023-06-26T20:48:12;4.40;;;1.83;;
15381;SDS011;7789;51.364;12.358;2023-06-26T20:53:17;3.25;;;1.80;;
15381;SDS011;7789;51.364;12.358;2023-06-26T20:58:21;5.40;;;1.77;;
15381;SDS011;7789;51.364;12.358;2023-06-26T21:03:26;5.28;;;1.80;;
15381;SDS011;7789;51.364;12.358;2023-06-26T21:08:30;5.88;;;1.98;;
15381;SDS011;7789;51.364;12.358;2023-06-26T21:13:33;3.88;;;2.00;;
15381;SDS011;7789;51.364;12.358;2023-06-26T21:18:38;4.90;;;1.90;;
15381;SDS011;7789;51.364;12.358;2023-06-26T21:23:42;3.92;;;2.00;;
15381;SDS011;7789;51.364;12.358;2023-06-26T21:28:46;3.78;;;1.70;;
15381;SDS011;7789;51.364;12.358;2023-06-26T21:33:51;3.83;;;1.63;;
15381;SDS011;7789;51.364;12.358;2023-06-26T21:38:54;7.47;;;2.03;;
15381;SDS011;7789;51.364;12.358;2023-06-26T21:43:58;4.05;;;1.70;;
15381;SDS011;7789;51.364;12.358;2023-06-26T21:49:03;4.80;;;2.10;;
15381;SDS011;7789;51.364;12.358;2023-06-26T21:54:09;3.85;;;1.77;;
15381;SDS011;7789;51.364;12.358;2023-06-26T21:59:13;2.38;;;1.50;;
15381;SDS011;7789;51.364;12.358;2023-06-26T22:04:19;6.20;;;2.25;;
15381;SDS011;7789;51.364;12.358;2023-06-26T22:09:23;4.45;;;1.85;;
15381;SDS011;7789;51.364;12.358;2023-06-26T22:14:26;11.15;;;2.17;;
15381;SDS011;7789;51.364;12.358;2023-06-26T22:19:34;3.92;;;1.98;;
15381;SDS011;7789;51.364;12.358;2023-06-26T22:24:38;3.90;;;1.65;;
15381;SDS011;7789;51.364;12.358;2023-06-26T22:29:41;3.00;;;1.70;;
15381;SDS011;7789;51.364;12.358;2023-06-26T22:34:47;4.40;;;1.88;;
15381;SDS011;7789;51.364;12.358;2023-06-26T22:39:51;4.10;;;1.60;;
15381;SDS011;7789;51.364;12.358;2023-06-26T22:44:55;6.88;;;2.17;;
15381;SDS011;7789;51.364;12.358;2023-06-26T22:50:00;3.70;;;1.92;;
15381;SDS011;7789;51.364;12.358;2023-06-26T22:55:04;2.70;;;1.63;;
15381;SDS011;7789;51.364;12.358;2023-06-26T23:00:08;2.80;;;1.85;;
15381;SDS011;7789;51.364;12.358;2023-06-26T23:05:14;4.10;;;1.40;;
15381;SDS011;7789;51.364;12.358;2023-06-26T23:10:17;4.40;;;1.70;;
15381;SDS011;7789;51.364;12.358;2023-06-26T23:15:21;3.13;;;2.05;;
15381;SDS011;7789;51.364;12.358;2023-06-26T23:20:27;5.45;;;2.00;;
15381;SDS011;7789;51.364;12.358;2023-06-26T23:25:31;3.15;;;1.67;;
15381;SDS011;7789;51.364;12.358;2023-06-26T23:30:36;5.70;;;1.90;;
15381;SDS011;7789;51.364;12.358;2023-06-26T23:35:45;3.67;;;2.00;;
15381;SDS011;7789;51.364;12.358;2023-06-26T23:40:49;4.15;;;2.05;;
15381;SDS011;7789;51.364;12.358;2023-06-26T23:45:52;3.90;;;1.80;;
15381;SDS011;7789;51.364;12.358;2023-06-26T23:50:57;4.18;;;1.90;;
15381;SDS011;7789;51.364;12.358;2023-06-26T23:56:01;3.63;;;1.90;;
